sensor_id;sensor_type;location;lat;lon;timestamp;P1;durP1;ratioP1;P2;durP2;ratioP2
22557;SDS011;11445;53.816;8.902;2023-02-15T00:02:01;36.63;;;17.98;;
22557;SDS011;11445;53.816;8.902;2023-02-15T00:04:29;32.83;;;16.67;;
22557;SDS011;11445;53.816;8.902;2023-02-15T00:07:09;34.83;;;16.88;;
22557;SDS011;11445;53.816;8.902;2023-02-15T00:09:36;34.78;;;17.08;;
22557;SDS011;11445;53.816;8.902;2023-02-15T00:12:04;31.70;;;15.82;;
22557;SDS011;11445;53.816;8.902;2023-02-15T00:14:31;31.50;;;16.42;;
22557;SDS011;11445;53.816;8.902;2023-02-15T00:16:59;29.13;;;15.40;;
22557;SDS011;11445;53.816;8.902;2023-02-15T00:19:26;31.17;;;15.75;;
22557;SDS011;11445;53.816;8.902;2023-02-15T00:21:53;32.65;;;16.00;;
22557;SDS011;11445;53.816;8.902;2023-02-15T00:24:20;31.48;;;16.08;;
22557;SDS011;11445;53.816;8.902;2023-02-15T00:26:47;31.88;;;15.30;;
22557;SDS011;11445;53.816;8.902;2023-02-15T00:29:15;33.50;;;15.68;;
22557;SDS011;11445;53.816;8.902;2023-02-15T00:31:44;33.53;;;17.08;;
22557;SDS011;11445;53.816;8.902;2023-02-15T00:34:13;33.97;;;17.13;;
22557;SDS011;11445;53.816;8.902;2023-02-15T00:36:42;34.67;;;16.13;;
22557;SDS011;11445;53.816;8.902;2023-02-15T00:39:09;31.02;;;15.75;;
22557;SDS011;11445;53.816;8.902;2023-02-15T00:41:36;33.92;;;16.75;;
22557;SDS011;11445;53.816;8.902;2023-02-15T00:44:03;30.48;;;16.50;;
22557;SDS011;11445;53.816;8.902;2023-02-15T00:46:31;33.78;;;16.20;;
22557;SDS011;11445;53.816;8.902;2023-02-15T00:48:58;31.60;;;15.93;;
22557;SDS011;11445;53.816;8.902;2023-02-15T00:51:26;33.30;;;15.88;;
22557;SDS011;11445;53.816;8.902;2023-02-15T00:53:54;31.85;;;16.02;;
22557;SDS011;11445;53.816;8.902;2023-02-15T00:56:21;31.67;;;14.70;;
22557;SDS011;11445;53.816;8.902;2023-02-15T00:58:48;34.08;;;15.35;;
22557;SDS011;11445;53.816;8.902;2023-02-15T01:01:16;28.90;;;14.95;;
22557;SDS011;11445;53.816;8.902;2023-02-15T01:03:45;29.13;;;15.30;;
22557;SDS011;11445;53.816;8.902;2023-02-15T01:06:12;27.40;;;14.02;;
22557;SDS011;11445;53.816;8.902;2023-02-15T01:08:41;28.42;;;14.18;;
22557;SDS011;11445;53.816;8.902;2023-02-15T01:11:10;28.20;;;15.20;;
22557;SDS011;11445;53.816;8.902;2023-02-15T01:13:38;27.65;;;13.68;;
22557;SDS011;11445;53.816;8.902;2023-02-15T01:16:06;27.77;;;14.43;;
22557;SDS011;11445;53.816;8.902;2023-02-15T01:18:34;28.67;;;14.52;;
22557;SDS011;11445;53.816;8.902;2023-02-15T01:21:08;33.10;;;13.60;;
22557;SDS011;11445;53.816;8.902;2023-02-15T01:23:36;39.65;;;13.50;;
22557;SDS011;11445;53.816;8.902;2023-02-15T01:26:05;33.25;;;11.77;;
22557;SDS011;11445;53.816;8.902;2023-02-15T01:28:33;26.40;;;11.38;;
22557;SDS011;11445;53.816;8.902;2023-02-15T01:31:04;25.23;;;11.00;;
22557;SDS011;11445;53.816;8.902;2023-02-15T01:33:32;26.00;;;10.45;;
22557;SDS011;11445;53.816;8.902;2023-02-15T01:35:59;36.72;;;11.55;;
22557;SDS011;11445;53.816;8.902;2023-02-15T01:38:26;25.98;;;10.85;;
22557;SDS011;11445;53.816;8.902;2023-02-15T01:40:54;53.92;;;10.90;;
22557;SDS011;11445;53.816;8.902;2023-02-15T01:43:44;36.28;;;11.50;;
22557;SDS011;11445;53.816;8.902;2023-02-15T01:46:13;34.75;;;11.40;;
22557;SDS011;11445;53.816;8.902;2023-02-15T01:48:43;38.70;;;10.85;;
22557;SDS011;11445;53.816;8.902;2023-02-15T01:51:12;29.23;;;11.20;;
22557;SDS011;11445;53.816;8.902;2023-02-15T01:53:45;37.95;;;11.50;;
22557;SDS011;11445;53.816;8.902;2023-02-15T01:56:16;40.95;;;11.50;;
22557;SDS011;11445;53.816;8.902;2023-02-15T01:58:47;35.55;;;11.38;;
22557;SDS011;11445;53.816;8.902;2023-02-15T02:01:15;43.83;;;11.95;;
22557;SDS011;11445;53.816;8.902;2023-02-15T02:03:44;52.42;;;11.02;;
22557;SDS011;11445;53.816;8.902;2023-02-15T02:06:16;59.03;;;11.05;;
22557;SDS011;11445;53.816;8.902;2023-02-15T02:08:44;30.25;;;12.77;;
22557;SDS011;11445;53.816;8.902;2023-02-15T02:11:12;43.13;;;10.30;;
22557;SDS011;11445;53.816;8.902;2023-02-15T02:13:40;51.85;;;11.38;;
22557;SDS011;11445;53.816;8.902;2023-02-15T02:16:10;58.67;;;11.90;;
22557;SDS011;11445;53.816;8.902;2023-02-15T02:18:44;58.50;;;12.20;;
22557;SDS011;11445;53.816;8.902;2023-02-15T02:24:45;42.95;;;11.02;;
22557;SDS011;11445;53.816;8.902;2023-02-15T02:27:29;49.28;;;10.30;;
22557;SDS011;11445;53.816;8.902;2023-02-15T02:36:14;47.45;;;10.63;;
22557;SDS011;11445;53.816;8.902;2023-02-15T02:38:50;21.63;;;9.82;;
22557;SDS011;11445;53.816;8.902;2023-02-15T02:41:28;28.35;;;9.68;;
22557;SDS011;11445;53.816;8.902;2023-02-15T02:43:59;42.83;;;9.93;;
22557;SDS011;11445;53.816;8.902;2023-02-15T02:46:35;31.35;;;9.48;;
22557;SDS011;11445;53.816;8.902;2023-02-15T02:49:11;26.13;;;8.85;;
22557;SDS011;11445;53.816;8.902;2023-02-15T02:51:38;34.92;;;8.73;;
22557;SDS011;11445;53.816;8.902;2023-02-15T02:54:05;50.38;;;9.68;;
22557;SDS011;11445;53.816;8.902;2023-02-15T02:56:34;41.70;;;9.68;;
22557;SDS011;11445;53.816;8.902;2023-02-15T02:59:06;71.77;;;10.20;;
22557;SDS011;11445;53.816;8.902;2023-02-15T03:01:39;52.40;;;9.90;;
22557;SDS011;11445;53.816;8.902;2023-02-15T03:04:11;49.50;;;9.82;;
22557;SDS011;11445;53.816;8.902;2023-02-15T03:06:42;45.10;;;9.55;;
22557;SDS011;11445;53.816;8.902;2023-02-15T03:09:14;45.40;;;10.18;;
22557;SDS011;11445;53.816;8.902;2023-02-15T03:14:13;53.42;;;9.57;;
22557;SDS011;11445;53.816;8.902;2023-02-15T03:16:43;71.70;;;9.38;;
22557;SDS011;11445;53.816;8.902;2023-02-15T03:19:15;55.63;;;10.48;;
22557;SDS011;11445;53.816;8.902;2023-02-15T03:21:46;68.18;;;10.32;;
22557;SDS011;11445;53.816;8.902;2023-02-15T03:24:29;63.63;;;9.60;;
22557;SDS011;11445;53.816;8.902;2023-02-15T03:27:00;82.68;;;10.93;;
22557;SDS011;11445;53.816;8.902;2023-02-15T03:29:30;69.55;;;9.98;;
22557;SDS011;11445;53.816;8.902;2023-02-15T03:31:59;70.53;;;10.65;;
22557;SDS011;11445;53.816;8.902;2023-02-15T03:34:31;81.43;;;10.95;;
22557;SDS011;11445;53.816;8.902;2023-02-15T03:36:59;50.63;;;9.45;;
22557;SDS011;11445;53.816;8.902;2023-02-15T03:42:02;57.50;;;10.38;;
22557;SDS011;11445;53.816;8.902;2023-02-15T03:44:37;43.25;;;10.13;;
22557;SDS011;11445;53.816;8.902;2023-02-15T03:47:13;49.63;;;9.80;;
22557;SDS011;11445;53.816;8.902;2023-02-15T03:49:45;56.78;;;9.88;;
22557;SDS011;11445;53.816;8.902;2023-02-15T03:52:15;56.35;;;10.65;;
22557;SDS011;11445;53.816;8.902;2023-02-15T03:54:43;68.50;;;10.00;;
22557;SDS011;11445;53.816;8.902;2023-02-15T03:57:13;41.50;;;9.55;;
22557;SDS011;11445;53.816;8.902;2023-02-15T04:00:02;74.72;;;10.77;;
22557;SDS011;11445;53.816;8.902;2023-02-15T04:02:52;71.88;;;11.13;;
22557;SDS011;11445;53.816;8.902;2023-02-15T04:05:31;55.15;;;10.68;;
22557;SDS011;11445;53.816;8.902;2023-02-15T04:07:58;76.28;;;11.30;;
22557;SDS011;11445;53.816;8.902;2023-02-15T04:10:25;45.55;;;11.70;;
22557;SDS011;11445;53.816;8.902;2023-02-15T04:13:09;64.20;;;10.98;;
22557;SDS011;11445;53.816;8.902;2023-02-15T04:15:36;64.57;;;11.68;;
22557;SDS011;11445;53.816;8.902;2023-02-15T04:18:21;47.28;;;11.82;;
22557;SDS011;11445;53.816;8.902;2023-02-15T04:21:07;52.00;;;11.05;;
22557;SDS011;11445;53.816;8.902;2023-02-15T04:23:51;60.45;;;11.10;;
22557;SDS011;11445;53.816;8.902;2023-02-15T04:26:36;62.35;;;11.50;;
22557;SDS011;11445;53.816;8.902;2023-02-15T04:29:03;46.40;;;10.85;;
22557;SDS011;11445;53.816;8.902;2023-02-15T04:31:30;57.30;;;11.20;;
22557;SDS011;11445;53.816;8.902;2023-02-15T04:33:57;34.42;;;11.20;;
22557;SDS011;11445;53.816;8.902;2023-02-15T04:36:25;48.13;;;12.05;;
22557;SDS011;11445;53.816;8.902;2023-02-15T04:38:52;43.20;;;11.43;;
22557;SDS011;11445;53.816;8.902;2023-02-15T04:41:19;56.20;;;12.02;;
22557;SDS011;11445;53.816;8.902;2023-02-15T04:43:46;45.05;;;11.23;;
22557;SDS011;11445;53.816;8.902;2023-02-15T04:46:13;38.13;;;11.50;;
22557;SDS011;11445;53.816;8.902;2023-02-15T04:48:40;69.65;;;13.95;;
22557;SDS011;11445;53.816;8.902;2023-02-15T04:51:08;45.95;;;13.63;;
22557;SDS011;11445;53.816;8.902;2023-02-15T04:53:37;43.33;;;12.23;;
22557;SDS011;11445;53.816;8.902;2023-02-15T04:56:04;49.80;;;14.38;;
22557;SDS011;11445;53.816;8.902;2023-02-15T04:58:32;66.03;;;12.15;;
22557;SDS011;11445;53.816;8.902;2023-02-15T05:01:00;42.95;;;10.98;;
22557;SDS011;11445;53.816;8.902;2023-02-15T05:03:27;45.45;;;12.73;;
22557;SDS011;11445;53.816;8.902;2023-02-15T05:05:54;62.45;;;11.88;;
22557;SDS011;11445;53.816;8.902;2023-02-15T05:08:21;39.80;;;11.88;;
22557;SDS011;11445;53.816;8.902;2023-02-15T05:10:50;45.90;;;11.93;;
22557;SDS011;11445;53.816;8.902;2023-02-15T05:13:17;82.05;;;13.10;;
22557;SDS011;11445;53.816;8.902;2023-02-15T05:15:46;46.78;;;11.90;;
22557;SDS011;11445;53.816;8.902;2023-02-15T05:18:15;72.47;;;12.60;;
22557;SDS011;11445;53.816;8.902;2023-02-15T05:20:42;46.50;;;12.05;;
22557;SDS011;11445;53.816;8.902;2023-02-15T05:23:10;69.25;;;12.52;;
22557;SDS011;11445;53.816;8.902;2023-02-15T05:25:37;53.15;;;13.32;;
22557;SDS011;11445;53.816;8.902;2023-02-15T05:28:23;62.35;;;12.00;;
22557;SDS011;11445;53.816;8.902;2023-02-15T05:30:58;22.35;;;11.18;;
22557;SDS011;11445;53.816;8.902;2023-02-15T05:33:29;59.65;;;11.77;;
22557;SDS011;11445;53.816;8.902;2023-02-15T05:35:56;50.17;;;12.20;;
22557;SDS011;11445;53.816;8.902;2023-02-15T05:38:23;60.88;;;13.23;;
22557;SDS011;11445;53.816;8.902;2023-02-15T05:40:50;59.55;;;13.05;;
22557;SDS011;11445;53.816;8.902;2023-02-15T05:43:18;48.95;;;12.40;;
22557;SDS011;11445;53.816;8.902;2023-02-15T05:45:46;96.65;;;13.30;;
22557;SDS011;11445;53.816;8.902;2023-02-15T05:48:14;45.65;;;12.15;;
22557;SDS011;11445;53.816;8.902;2023-02-15T05:50:41;35.42;;;12.27;;
22557;SDS011;11445;53.816;8.902;2023-02-15T05:53:08;67.72;;;13.40;;
22557;SDS011;11445;53.816;8.902;2023-02-15T05:55:36;55.78;;;13.90;;
22557;SDS011;11445;53.816;8.902;2023-02-15T05:58:04;67.43;;;12.52;;
22557;SDS011;11445;53.816;8.902;2023-02-15T06:00:32;50.50;;;13.05;;
22557;SDS011;11445;53.816;8.902;2023-02-15T06:03:00;43.33;;;12.93;;
22557;SDS011;11445;53.816;8.902;2023-02-15T06:05:27;50.47;;;14.73;;
22557;SDS011;11445;53.816;8.902;2023-02-15T06:07:54;75.22;;;12.80;;
22557;SDS011;11445;53.816;8.902;2023-02-15T06:10:21;60.17;;;13.13;;
22557;SDS011;11445;53.816;8.902;2023-02-15T06:12:48;66.32;;;12.65;;
22557;SDS011;11445;53.816;8.902;2023-02-15T06:15:15;76.95;;;12.57;;
22557;SDS011;11445;53.816;8.902;2023-02-15T06:17:43;58.88;;;12.80;;
22557;SDS011;11445;53.816;8.902;2023-02-15T06:20:12;60.25;;;11.77;;
22557;SDS011;11445;53.816;8.902;2023-02-15T06:22:39;65.90;;;13.30;;
22557;SDS011;11445;53.816;8.902;2023-02-15T06:25:06;55.83;;;12.18;;
22557;SDS011;11445;53.816;8.902;2023-02-15T06:27:36;57.30;;;11.88;;
22557;SDS011;11445;53.816;8.902;2023-02-15T06:30:03;64.15;;;12.75;;
22557;SDS011;11445;53.816;8.902;2023-02-15T06:32:32;80.65;;;12.88;;
22557;SDS011;11445;53.816;8.902;2023-02-15T06:34:59;67.93;;;13.50;;
22557;SDS011;11445;53.816;8.902;2023-02-15T06:37:27;70.55;;;12.07;;
22557;SDS011;11445;53.816;8.902;2023-02-15T06:39:54;112.32;;;12.70;;
22557;SDS011;11445;53.816;8.902;2023-02-15T06:42:21;51.03;;;11.27;;
22557;SDS011;11445;53.816;8.902;2023-02-15T06:44:49;34.80;;;11.40;;
22557;SDS011;11445;53.816;8.902;2023-02-15T06:47:16;56.88;;;12.32;;
22557;SDS011;11445;53.816;8.902;2023-02-15T06:49:43;32.65;;;11.05;;
22557;SDS011;11445;53.816;8.902;2023-02-15T06:52:10;66.22;;;11.10;;
22557;SDS011;11445;53.816;8.902;2023-02-15T06:54:38;69.53;;;12.80;;
22557;SDS011;11445;53.816;8.902;2023-02-15T06:57:05;23.40;;;11.73;;
22557;SDS011;11445;53.816;8.902;2023-02-15T06:59:34;58.80;;;11.73;;
22557;SDS011;11445;53.816;8.902;2023-02-15T07:02:01;65.15;;;11.95;;
22557;SDS011;11445;53.816;8.902;2023-02-15T07:04:28;67.43;;;11.13;;
22557;SDS011;11445;53.816;8.902;2023-02-15T07:06:55;50.17;;;10.93;;
22557;SDS011;11445;53.816;8.902;2023-02-15T07:09:22;25.83;;;10.43;;
22557;SDS011;11445;53.816;8.902;2023-02-15T07:11:51;53.20;;;11.18;;
22557;SDS011;11445;53.816;8.902;2023-02-15T07:14:35;62.28;;;11.40;;
22557;SDS011;11445;53.816;8.902;2023-02-15T07:17:02;36.03;;;11.00;;
22557;SDS011;11445;53.816;8.902;2023-02-15T07:19:29;46.08;;;12.18;;
22557;SDS011;11445;53.816;8.902;2023-02-15T07:21:56;56.58;;;12.07;;
22557;SDS011;11445;53.816;8.902;2023-02-15T07:24:23;51.83;;;12.25;;
22557;SDS011;11445;53.816;8.902;2023-02-15T07:26:52;68.10;;;12.40;;
22557;SDS011;11445;53.816;8.902;2023-02-15T07:29:19;52.17;;;11.65;;
22557;SDS011;11445;53.816;8.902;2023-02-15T07:31:46;40.75;;;11.27;;
22557;SDS011;11445;53.816;8.902;2023-02-15T07:34:13;78.20;;;12.35;;
22557;SDS011;11445;53.816;8.902;2023-02-15T07:36:40;37.83;;;11.75;;
22557;SDS011;11445;53.816;8.902;2023-02-15T07:39:09;37.28;;;11.57;;
22557;SDS011;11445;53.816;8.902;2023-02-15T07:41:36;50.50;;;12.48;;
22557;SDS011;11445;53.816;8.902;2023-02-15T07:44:04;29.65;;;12.93;;
22557;SDS011;11445;53.816;8.902;2023-02-15T07:46:31;56.65;;;13.25;;
22557;SDS011;11445;53.816;8.902;2023-02-15T07:48:58;41.55;;;12.63;;
22557;SDS011;11445;53.816;8.902;2023-02-15T07:51:25;40.95;;;12.60;;
22557;SDS011;11445;53.816;8.902;2023-02-15T07:53:52;48.90;;;14.23;;
22557;SDS011;11445;53.816;8.902;2023-02-15T07:56:20;54.10;;;12.95;;
22557;SDS011;11445;53.816;8.902;2023-02-15T07:58:47;42.03;;;13.55;;
22557;SDS011;11445;53.816;8.902;2023-02-15T08:01:18;37.13;;;12.52;;
22557;SDS011;11445;53.816;8.902;2023-02-15T08:03:46;45.67;;;12.85;;
22557;SDS011;11445;53.816;8.902;2023-02-15T08:06:13;55.83;;;14.48;;
22557;SDS011;11445;53.816;8.902;2023-02-15T08:08:41;42.72;;;13.13;;
22557;SDS011;11445;53.816;8.902;2023-02-15T08:11:14;68.55;;;12.98;;
22557;SDS011;11445;53.816;8.902;2023-02-15T08:13:54;57.80;;;13.55;;
22557;SDS011;11445;53.816;8.902;2023-02-15T08:16:27;26.55;;;12.57;;
22557;SDS011;11445;53.816;8.902;2023-02-15T08:18:55;54.08;;;12.90;;
22557;SDS011;11445;53.816;8.902;2023-02-15T08:21:24;53.95;;;13.35;;
22557;SDS011;11445;53.816;8.902;2023-02-15T08:23:53;60.30;;;13.68;;
22557;SDS011;11445;53.816;8.902;2023-02-15T08:26:20;55.28;;;14.27;;
22557;SDS011;11445;53.816;8.902;2023-02-15T08:28:48;45.42;;;13.45;;
22557;SDS011;11445;53.816;8.902;2023-02-15T08:31:16;51.70;;;13.70;;
22557;SDS011;11445;53.816;8.902;2023-02-15T08:33:45;43.08;;;14.55;;
22557;SDS011;11445;53.816;8.902;2023-02-15T08:36:13;73.45;;;14.57;;
22557;SDS011;11445;53.816;8.902;2023-02-15T08:38:41;68.25;;;14.32;;
22557;SDS011;11445;53.816;8.902;2023-02-15T08:41:10;58.40;;;13.57;;
22557;SDS011;11445;53.816;8.902;2023-02-15T08:43:38;72.78;;;14.68;;
22557;SDS011;11445;53.816;8.902;2023-02-15T08:46:06;112.25;;;16.15;;
22557;SDS011;11445;53.816;8.902;2023-02-15T08:48:34;89.78;;;15.38;;
22557;SDS011;11445;53.816;8.902;2023-02-15T08:51:07;60.75;;;14.07;;
22557;SDS011;11445;53.816;8.902;2023-02-15T08:53:35;177.23;;;18.13;;
22557;SDS011;11445;53.816;8.902;2023-02-15T08:56:03;77.65;;;14.57;;
22557;SDS011;11445;53.816;8.902;2023-02-15T08:58:31;79.25;;;14.70;;
22557;SDS011;11445;53.816;8.902;2023-02-15T09:00:58;81.43;;;16.15;;
22557;SDS011;11445;53.816;8.902;2023-02-15T09:03:27;97.15;;;16.42;;
22557;SDS011;11445;53.816;8.902;2023-02-15T09:05:57;110.85;;;16.92;;
22557;SDS011;11445;53.816;8.902;2023-02-15T09:08:27;79.05;;;15.70;;
22557;SDS011;11445;53.816;8.902;2023-02-15T09:11:03;104.65;;;18.23;;
22557;SDS011;11445;53.816;8.902;2023-02-15T09:13:31;136.20;;;18.75;;
22557;SDS011;11445;53.816;8.902;2023-02-15T09:15:59;107.60;;;17.25;;
22557;SDS011;11445;53.816;8.902;2023-02-15T09:18:27;112.28;;;19.98;;
22557;SDS011;11445;53.816;8.902;2023-02-15T09:23:33;116.57;;;16.05;;
22557;SDS011;11445;53.816;8.902;2023-02-15T09:26:04;102.40;;;16.38;;
22557;SDS011;11445;53.816;8.902;2023-02-15T09:28:33;162.65;;;20.88;;
22557;SDS011;11445;53.816;8.902;2023-02-15T09:31:07;118.78;;;20.30;;
22557;SDS011;11445;53.816;8.902;2023-02-15T09:33:35;139.88;;;18.15;;
22557;SDS011;11445;53.816;8.902;2023-02-15T09:36:02;138.57;;;18.55;;
22557;SDS011;11445;53.816;8.902;2023-02-15T09:38:30;134.85;;;18.85;;
22557;SDS011;11445;53.816;8.902;2023-02-15T09:41:03;122.47;;;18.25;;
22557;SDS011;11445;53.816;8.902;2023-02-15T09:43:42;91.43;;;16.35;;
22557;SDS011;11445;53.816;8.902;2023-02-15T09:46:31;92.28;;;17.35;;
22557;SDS011;11445;53.816;8.902;2023-02-15T09:49:10;134.85;;;19.92;;
22557;SDS011;11445;53.816;8.902;2023-02-15T09:51:52;156.95;;;20.65;;
22557;SDS011;11445;53.816;8.902;2023-02-15T09:54:41;108.70;;;18.33;;
22557;SDS011;11445;53.816;8.902;2023-02-15T09:57:20;77.60;;;16.27;;
22557;SDS011;11445;53.816;8.902;2023-02-15T09:59:58;109.80;;;19.05;;
22557;SDS011;11445;53.816;8.902;2023-02-15T10:02:38;118.22;;;20.02;;
22557;SDS011;11445;53.816;8.902;2023-02-15T10:05:21;60.35;;;18.73;;
22557;SDS011;11445;53.816;8.902;2023-02-15T10:07:58;135.57;;;21.10;;
22557;SDS011;11445;53.816;8.902;2023-02-15T10:10:50;120.60;;;20.27;;
22557;SDS011;11445;53.816;8.902;2023-02-15T10:13:52;66.40;;;19.55;;
22557;SDS011;11445;53.816;8.902;2023-02-15T10:16:30;78.20;;;20.35;;
22557;SDS011;11445;53.816;8.902;2023-02-15T10:19:08;62.10;;;19.17;;
22557;SDS011;11445;53.816;8.902;2023-02-15T10:21:46;82.90;;;20.13;;
22557;SDS011;11445;53.816;8.902;2023-02-15T10:24:36;108.15;;;19.15;;
22557;SDS011;11445;53.816;8.902;2023-02-15T10:27:13;97.80;;;20.48;;
22557;SDS011;11445;53.816;8.902;2023-02-15T10:29:47;82.88;;;20.20;;
22557;SDS011;11445;53.816;8.902;2023-02-15T10:32:24;82.95;;;20.77;;
22557;SDS011;11445;53.816;8.902;2023-02-15T10:34:55;77.18;;;21.40;;
22557;SDS011;11445;53.816;8.902;2023-02-15T10:37:33;96.38;;;21.52;;
22557;SDS011;11445;53.816;8.902;2023-02-15T10:40:20;79.82;;;21.80;;
22557;SDS011;11445;53.816;8.902;2023-02-15T10:42:57;107.50;;;21.70;;
22557;SDS011;11445;53.816;8.902;2023-02-15T10:45:39;92.88;;;23.25;;
22557;SDS011;11445;53.816;8.902;2023-02-15T10:48:17;79.47;;;22.20;;
22557;SDS011;11445;53.816;8.902;2023-02-15T10:51:00;46.58;;;20.67;;
22557;SDS011;11445;53.816;8.902;2023-02-15T10:53:42;59.97;;;22.65;;
22557;SDS011;11445;53.816;8.902;2023-02-15T10:56:24;63.50;;;21.77;;
22557;SDS011;11445;53.816;8.902;2023-02-15T10:59:03;55.67;;;22.45;;
22557;SDS011;11445;53.816;8.902;2023-02-15T11:01:47;81.95;;;22.98;;
22557;SDS011;11445;53.816;8.902;2023-02-15T11:07:16;84.20;;;23.23;;
22557;SDS011;11445;53.816;8.902;2023-02-15T11:09:48;49.87;;;24.23;;
22557;SDS011;11445;53.816;8.902;2023-02-15T11:12:20;55.60;;;23.33;;
22557;SDS011;11445;53.816;8.902;2023-02-15T11:14:51;59.53;;;24.45;;
22557;SDS011;11445;53.816;8.902;2023-02-15T11:17:25;70.43;;;25.50;;
22557;SDS011;11445;53.816;8.902;2023-02-15T11:19:58;81.72;;;25.20;;
22557;SDS011;11445;53.816;8.902;2023-02-15T11:22:34;84.63;;;26.25;;
22557;SDS011;11445;53.816;8.902;2023-02-15T11:25:04;50.28;;;25.42;;
22557;SDS011;11445;53.816;8.902;2023-02-15T11:27:42;71.70;;;26.38;;
22557;SDS011;11445;53.816;8.902;2023-02-15T11:30:12;76.45;;;27.20;;
22557;SDS011;11445;53.816;8.902;2023-02-15T11:32:43;61.33;;;27.85;;
22557;SDS011;11445;53.816;8.902;2023-02-15T11:35:19;59.22;;;28.38;;
22557;SDS011;11445;53.816;8.902;2023-02-15T11:37:53;54.20;;;28.50;;
22557;SDS011;11445;53.816;8.902;2023-02-15T11:40:26;64.97;;;28.25;;
22557;SDS011;11445;53.816;8.902;2023-02-15T11:42:55;59.42;;;28.42;;
22557;SDS011;11445;53.816;8.902;2023-02-15T11:45:26;66.05;;;29.08;;
22557;SDS011;11445;53.816;8.902;2023-02-15T11:47:56;73.45;;;30.33;;
22557;SDS011;11445;53.816;8.902;2023-02-15T11:50:26;71.47;;;29.35;;
22557;SDS011;11445;53.816;8.902;2023-02-15T11:52:57;64.63;;;30.77;;
22557;SDS011;11445;53.816;8.902;2023-02-15T11:55:26;61.17;;;31.45;;
22557;SDS011;11445;53.816;8.902;2023-02-15T11:57:55;70.28;;;30.38;;
22557;SDS011;11445;53.816;8.902;2023-02-15T12:00:30;74.55;;;32.95;;
22557;SDS011;11445;53.816;8.902;2023-02-15T12:03:03;72.13;;;32.92;;
22557;SDS011;11445;53.816;8.902;2023-02-15T12:05:39;75.00;;;32.83;;
22557;SDS011;11445;53.816;8.902;2023-02-15T12:08:15;48.67;;;23.40;;
22557;SDS011;11445;53.816;8.902;2023-02-15T12:10:49;67.40;;;33.30;;
22557;SDS011;11445;53.816;8.902;2023-02-15T12:13:23;85.45;;;37.40;;
22557;SDS011;11445;53.816;8.902;2023-02-15T12:15:51;67.15;;;34.67;;
22557;SDS011;11445;53.816;8.902;2023-02-15T12:18:24;75.43;;;36.03;;
22557;SDS011;11445;53.816;8.902;2023-02-15T12:21:00;71.07;;;35.60;;
22557;SDS011;11445;53.816;8.902;2023-02-15T12:23:32;86.50;;;35.80;;
22557;SDS011;11445;53.816;8.902;2023-02-15T12:26:00;64.65;;;34.35;;
22557;SDS011;11445;53.816;8.902;2023-02-15T12:28:30;66.30;;;36.00;;
22557;SDS011;11445;53.816;8.902;2023-02-15T12:30:59;75.45;;;36.83;;
22557;SDS011;11445;53.816;8.902;2023-02-15T12:33:30;68.78;;;36.05;;
22557;SDS011;11445;53.816;8.902;2023-02-15T12:36:02;77.10;;;37.83;;
22557;SDS011;11445;53.816;8.902;2023-02-15T12:38:35;73.68;;;38.38;;
22557;SDS011;11445;53.816;8.902;2023-02-15T12:41:03;79.50;;;37.53;;
22557;SDS011;11445;53.816;8.902;2023-02-15T12:43:47;74.18;;;37.67;;
22557;SDS011;11445;53.816;8.902;2023-02-15T12:46:30;78.57;;;38.80;;
22557;SDS011;11445;53.816;8.902;2023-02-15T12:49:11;74.82;;;39.28;;
22557;SDS011;11445;53.816;8.902;2023-02-15T12:51:46;86.65;;;40.42;;
22557;SDS011;11445;53.816;8.902;2023-02-15T12:54:16;75.15;;;38.55;;
22557;SDS011;11445;53.816;8.902;2023-02-15T12:57:02;82.15;;;39.22;;
22557;SDS011;11445;53.816;8.902;2023-02-15T12:59:47;77.38;;;38.03;;
22557;SDS011;11445;53.816;8.902;2023-02-15T13:02:16;74.90;;;37.80;;
22557;SDS011;11445;53.816;8.902;2023-02-15T13:04:53;75.47;;;38.55;;
22557;SDS011;11445;53.816;8.902;2023-02-15T13:07:21;76.97;;;39.58;;
22557;SDS011;11445;53.816;8.902;2023-02-15T13:09:50;76.85;;;40.35;;
22557;SDS011;11445;53.816;8.902;2023-02-15T13:12:20;79.38;;;40.53;;
22557;SDS011;11445;53.816;8.902;2023-02-15T13:14:49;81.50;;;40.83;;
22557;SDS011;11445;53.816;8.902;2023-02-15T13:17:18;75.80;;;39.63;;
22557;SDS011;11445;53.816;8.902;2023-02-15T13:19:50;78.45;;;39.00;;
22557;SDS011;11445;53.816;8.902;2023-02-15T13:22:21;80.88;;;41.17;;
22557;SDS011;11445;53.816;8.902;2023-02-15T13:24:53;73.25;;;39.63;;
22557;SDS011;11445;53.816;8.902;2023-02-15T13:27:23;78.32;;;39.28;;
22557;SDS011;11445;53.816;8.902;2023-02-15T13:29:56;79.50;;;39.92;;
22557;SDS011;11445;53.816;8.902;2023-02-15T13:32:29;71.72;;;37.63;;
22557;SDS011;11445;53.816;8.902;2023-02-15T13:35:03;69.22;;;37.92;;
22557;SDS011;11445;53.816;8.902;2023-02-15T13:37:45;74.85;;;37.95;;
22557;SDS011;11445;53.816;8.902;2023-02-15T13:40:27;72.30;;;36.08;;
22557;SDS011;11445;53.816;8.902;2023-02-15T13:43:00;74.72;;;36.38;;
22557;SDS011;11445;53.816;8.902;2023-02-15T13:45:37;68.15;;;35.60;;
22557;SDS011;11445;53.816;8.902;2023-02-15T13:48:13;68.85;;;35.95;;
22557;SDS011;11445;53.816;8.902;2023-02-15T13:50:54;71.47;;;36.33;;
22557;SDS011;11445;53.816;8.902;2023-02-15T13:53:33;59.47;;;30.97;;
22557;SDS011;11445;53.816;8.902;2023-02-15T13:56:12;63.70;;;34.20;;
22557;SDS011;11445;53.816;8.902;2023-02-15T14:01:43;63.55;;;34.55;;
22557;SDS011;11445;53.816;8.902;2023-02-15T14:07:10;66.93;;;36.63;;
22557;SDS011;11445;53.816;8.902;2023-02-15T14:09:52;64.68;;;34.83;;
22557;SDS011;11445;53.816;8.902;2023-02-15T14:12:33;69.75;;;36.30;;
22557;SDS011;11445;53.816;8.902;2023-02-15T14:15:10;65.57;;;35.78;;
22557;SDS011;11445;53.816;8.902;2023-02-15T14:17:52;71.53;;;37.47;;
22557;SDS011;11445;53.816;8.902;2023-02-15T14:20:32;66.95;;;36.88;;
22557;SDS011;11445;53.816;8.902;2023-02-15T14:23:11;68.50;;;37.30;;
22557;SDS011;11445;53.816;8.902;2023-02-15T14:25:55;67.65;;;37.33;;
22557;SDS011;11445;53.816;8.902;2023-02-15T14:28:27;71.70;;;35.80;;
22557;SDS011;11445;53.816;8.902;2023-02-15T14:31:00;66.60;;;36.28;;
22557;SDS011;11445;53.816;8.902;2023-02-15T14:33:32;71.03;;;38.03;;
22557;SDS011;11445;53.816;8.902;2023-02-15T14:36:01;63.38;;;36.20;;
22557;SDS011;11445;53.816;8.902;2023-02-15T14:38:38;61.40;;;35.53;;
22557;SDS011;11445;53.816;8.902;2023-02-15T14:41:19;63.53;;;34.88;;
22557;SDS011;11445;53.816;8.902;2023-02-15T14:43:52;61.28;;;35.53;;
22557;SDS011;11445;53.816;8.902;2023-02-15T14:46:29;62.28;;;35.28;;
22557;SDS011;11445;53.816;8.902;2023-02-15T14:49:03;62.33;;;36.05;;
22557;SDS011;11445;53.816;8.902;2023-02-15T14:57:34;72.13;;;37.25;;
22557;SDS011;11445;53.816;8.902;2023-02-15T15:00:03;69.85;;;37.72;;
22557;SDS011;11445;53.816;8.902;2023-02-15T15:03:10;65.85;;;36.30;;
22557;SDS011;11445;53.816;8.902;2023-02-15T15:05:48;67.05;;;37.22;;
22557;SDS011;11445;53.816;8.902;2023-02-15T15:08:26;72.23;;;38.33;;
22557;SDS011;11445;53.816;8.902;2023-02-15T15:11:01;74.82;;;39.40;;
22557;SDS011;11445;53.816;8.902;2023-02-15T15:14:05;62.78;;;33.85;;
22557;SDS011;11445;53.816;8.902;2023-02-15T15:16:48;66.93;;;36.08;;
22557;SDS011;11445;53.816;8.902;2023-02-15T15:22:23;62.15;;;35.30;;
22557;SDS011;11445;53.816;8.902;2023-02-15T15:24:52;64.65;;;35.53;;